Nearby METAR Reports

 

EGFF - Cardiff-Wales Ar, United Kingdom
Distance from station: SSW 23km
Updated: 18/08/2019 02:50
Clear
Clear
 Wind from SW
Wind: SW 17 km/h
Temperature: 15°C
Dew Point: 12°C
Humidity: 82%
Barometer: 1003 hPa
Clouds: Clear
Visibility: 10 km
2019/08/18 01:50 EGFF 180150Z AUTO 23009KT 9999 NCD 15/12 Q1003
EGGD - Bristol/Lulsgate, United Kingdom
Distance from station: ESE 43km
Updated: 18/08/2019 02:50
Clear
Clear
 Wind from SSW
Wind: SSW 9 km/h
Temperature: 13°C
Dew Point: 11°C
Humidity: 88%
Barometer: 1003 hPa
Clouds: Clear
Visibility: 10 km
2019/08/18 01:50 EGGD 180150Z AUTO 20005KT 170V240 9999 NCD 13/11 Q1003
 
EGDY - Yeovilton (navy), United Kingdom
Distance from station: SE 77km
Updated: 18/08/2019 01:50
Overcast
Overcast
 Wind from S
Wind: S 13 km/h
Temperature: 15°C
Dew Point: 11°C
Humidity: 77%
Barometer: 1004 hPa
Clouds: Overcast
Visibility: 10 km
Cloud details: Overcast 2438 m
2019/08/18 00:50 EGDY 180050Z AUTO 19007KT 9999 OVC080/// 15/11 Q1004 RERA
EGTE - Exeter Airport, United Kingdom
Distance from station: S 96km
Updated: 18/08/2019 00:20
NOT Current
Clear
Clear
 Wind from SSW
Wind: SSW 13 km/h
Temperature: 15°C
Dew Point: 12°C
Humidity: 82%
Barometer: 1004 hPa
Summary: Clear
Visibility: greater than 10 km
2019/08/17 23:20 EGTE 172320Z 20007KT CAVOK 15/12 Q1004